createdAt,value
2017-07-24T00:00:12.441Z,969.12
2017-07-24T00:01:13.144Z,969.08
2017-07-24T00:02:13.846Z,969.11
2017-07-24T00:03:14.547Z,969.05
2017-07-24T00:04:15.250Z,969.05
2017-07-24T00:05:15.950Z,969.01
2017-07-24T00:06:16.650Z,968.99
2017-07-24T00:07:17.351Z,968.95
2017-07-24T00:08:18.050Z,968.94
2017-07-24T00:09:18.749Z,968.92
2017-07-24T00:10:19.699Z,968.89
2017-07-24T00:11:20.400Z,968.90
2017-07-24T00:12:21.104Z,968.87
2017-07-24T00:13:21.805Z,968.85
2017-07-24T00:14:22.507Z,968.87
2017-07-24T00:15:23.457Z,968.80
2017-07-24T00:16:24.156Z,968.80
2017-07-24T00:17:24.855Z,968.75
2017-07-24T00:18:25.562Z,968.73
2017-07-24T00:19:26.272Z,968.69
2017-07-24T00:20:27.221Z,968.69
2017-07-24T00:21:27.923Z,968.71
2017-07-24T00:22:28.621Z,968.73
2017-07-24T00:23:29.324Z,968.77
2017-07-24T00:24:30.023Z,968.76
2017-07-24T00:25:30.970Z,968.77
2017-07-24T00:26:31.668Z,968.75
2017-07-24T00:27:32.370Z,968.74
2017-07-24T00:28:33.073Z,968.73
2017-07-24T00:29:33.770Z,968.71
2017-07-24T00:30:34.719Z,968.68
2017-07-24T00:31:35.418Z,968.66
2017-07-24T00:32:36.118Z,968.69
2017-07-24T00:33:36.821Z,968.70
2017-07-24T00:34:37.522Z,968.65
2017-07-24T00:35:38.468Z,968.61
2017-07-24T00:36:39.167Z,968.58
2017-07-24T00:37:39.870Z,968.55
2017-07-24T00:38:40.570Z,968.55
2017-07-24T00:39:41.272Z,968.52
2017-07-24T00:40:42.225Z,968.51
2017-07-24T00:41:42.921Z,968.50
2017-07-24T00:42:43.620Z,968.48
2017-07-24T00:43:44.325Z,968.48
2017-07-24T00:44:45.026Z,968.49
2017-07-24T00:45:45.976Z,968.45
2017-07-24T00:46:46.674Z,968.40
2017-07-24T00:47:47.381Z,968.37
2017-07-24T00:48:48.080Z,968.39
2017-07-24T00:49:48.782Z,968.36
2017-07-24T00:50:49.732Z,968.36
2017-07-24T00:51:50.429Z,968.38
2017-07-24T00:52:51.128Z,968.38
2017-07-24T00:53:51.829Z,968.35
2017-07-24T00:54:52.525Z,968.28
2017-07-24T00:55:53.481Z,968.29
2017-07-24T00:56:54.183Z,968.33
2017-07-24T00:57:54.888Z,968.25
2017-07-24T00:58:55.588Z,968.27
2017-07-24T00:59:56.284Z,968.25
2017-07-24T01:00:57.234Z,968.21
2017-07-24T01:01:57.932Z,968.21
2017-07-24T01:02:58.636Z,968.20
2017-07-24T01:03:59.346Z,968.17
2017-07-24T01:05:00.043Z,968.16
2017-07-24T01:06:00.997Z,968.14
2017-07-24T01:07:01.694Z,968.16
2017-07-24T01:08:02.393Z,968.14
2017-07-24T01:09:03.096Z,968.14
2017-07-24T01:10:03.799Z,968.12
2017-07-24T01:11:04.751Z,968.14
2017-07-24T01:12:05.459Z,968.15
2017-07-24T01:13:06.165Z,968.15
2017-07-24T01:14:06.869Z,968.13
2017-07-24T01:15:07.573Z,968.16
2017-07-24T01:16:08.524Z,968.12
2017-07-24T01:17:09.226Z,968.06
2017-07-24T01:18:09.928Z,968.09
2017-07-24T01:19:10.627Z,968.05
2017-07-24T01:20:11.327Z,967.99
2017-07-24T01:21:12.280Z,967.99
2017-07-24T01:22:12.981Z,967.95
2017-07-24T01:23:13.684Z,967.98
2017-07-24T01:24:14.394Z,968.00
2017-07-24T01:25:15.096Z,967.98
2017-07-24T01:26:16.047Z,967.99
2017-07-24T01:27:16.749Z,968.00
2017-07-24T01:28:17.447Z,967.97
2017-07-24T01:29:18.145Z,967.95
2017-07-24T01:30:18.847Z,967.94
2017-07-24T01:31:19.797Z,967.92
2017-07-24T01:32:20.499Z,967.92
2017-07-24T01:33:21.194Z,967.93
2017-07-24T01:34:21.894Z,967.85
2017-07-24T01:35:22.595Z,967.86
2017-07-24T01:36:23.314Z,967.86
2017-07-24T01:37:24.020Z,967.84
2017-07-24T01:38:24.719Z,967.83
2017-07-24T01:39:25.418Z,967.81
2017-07-24T01:40:26.121Z,967.75
2017-07-24T01:41:27.070Z,967.73
2017-07-24T01:42:27.777Z,967.71
2017-07-24T01:43:28.479Z,967.66
2017-07-24T01:44:29.180Z,967.66
2017-07-24T01:45:29.883Z,967.62
2017-07-24T01:46:30.836Z,967.61
2017-07-24T01:47:31.531Z,967.60
2017-07-24T01:48:32.228Z,967.58
2017-07-24T01:49:32.940Z,967.63
2017-07-24T01:50:33.645Z,967.59
2017-07-24T01:51:34.597Z,967.56
2017-07-24T01:52:35.295Z,967.57
2017-07-24T01:53:35.993Z,967.55
2017-07-24T01:54:36.693Z,967.52
2017-07-24T01:55:37.395Z,967.51
2017-07-24T01:56:38.345Z,967.48
2017-07-24T01:57:39.055Z,967.49
2017-07-24T01:58:39.758Z,967.49
2017-07-24T01:59:40.463Z,967.48
2017-07-24T02:00:41.164Z,967.47
2017-07-24T02:01:41.862Z,967.46
2017-07-24T02:02:42.564Z,967.40
2017-07-24T02:03:43.262Z,967.43
2017-07-24T02:04:43.960Z,967.42
2017-07-24T02:05:44.659Z,967.43
2017-07-24T02:06:45.608Z,967.42
2017-07-24T02:07:46.307Z,967.41
2017-07-24T02:08:47.007Z,967.39
2017-07-24T02:09:47.708Z,967.35
2017-07-24T02:10:48.413Z,967.35
2017-07-24T02:11:49.364Z,967.34
2017-07-24T02:12:50.063Z,967.33
2017-07-24T02:13:50.764Z,967.33
2017-07-24T02:14:51.465Z,967.31
2017-07-24T02:15:52.165Z,967.30
2017-07-24T02:16:53.115Z,967.31
2017-07-24T02:17:53.815Z,967.27
2017-07-24T02:18:54.517Z,967.26
2017-07-24T02:19:55.217Z,967.26
2017-07-24T02:20:55.914Z,967.19
2017-07-24T02:21:56.863Z,967.20
2017-07-24T02:22:57.562Z,967.15
2017-07-24T02:23:58.264Z,967.18
2017-07-24T02:24:58.962Z,967.15
2017-07-24T02:25:59.660Z,967.13
2017-07-24T02:27:00.609Z,967.16
2017-07-24T02:28:01.307Z,967.21
2017-07-24T02:29:02.008Z,967.18
2017-07-24T02:30:02.712Z,967.17
2017-07-24T02:31:03.417Z,967.14
2017-07-24T02:32:04.369Z,967.11
2017-07-24T02:33:05.072Z,967.12
2017-07-24T02:34:05.774Z,967.08
2017-07-24T02:35:06.472Z,967.02
2017-07-24T02:36:07.181Z,967.00
2017-07-24T02:37:08.133Z,966.96
2017-07-24T02:38:08.834Z,967.04
2017-07-24T02:39:09.533Z,967.00
2017-07-24T02:40:10.232Z,967.02
2017-07-24T02:41:10.929Z,966.97
2017-07-24T02:42:11.881Z,966.89
2017-07-24T02:43:12.583Z,966.84
2017-07-24T02:44:13.285Z,966.79
2017-07-24T02:45:13.984Z,966.78
2017-07-24T02:46:14.691Z,966.77
2017-07-24T02:47:15.641Z,966.76
2017-07-24T02:48:16.341Z,966.74
2017-07-24T02:49:17.041Z,966.74
2017-07-24T02:50:17.738Z,966.74
2017-07-24T02:51:18.439Z,966.71
2017-07-24T02:52:19.396Z,966.71
2017-07-24T02:53:20.101Z,966.70
2017-07-24T02:54:20.804Z,966.68
2017-07-24T02:55:21.505Z,966.70
2017-07-24T02:56:22.204Z,966.67
2017-07-24T02:57:22.900Z,966.66
2017-07-24T02:58:23.594Z,966.66
2017-07-24T02:59:24.291Z,966.59
2017-07-24T03:00:24.993Z,966.63
2017-07-24T03:01:25.696Z,966.62
2017-07-24T03:02:26.652Z,966.63
2017-07-24T03:03:27.360Z,966.63
2017-07-24T03:04:28.060Z,966.65
2017-07-24T03:05:28.766Z,966.61
2017-07-24T03:06:29.461Z,966.59
2017-07-24T03:07:30.159Z,966.55
2017-07-24T03:08:30.860Z,966.53
2017-07-24T03:09:31.561Z,966.53
2017-07-24T03:10:32.259Z,966.50
2017-07-24T03:11:32.961Z,966.56
2017-07-24T03:12:33.921Z,966.52
2017-07-24T03:13:34.621Z,966.54
2017-07-24T03:14:35.327Z,966.50
2017-07-24T03:15:36.026Z,966.50
2017-07-24T03:16:36.722Z,966.50
2017-07-24T03:17:37.665Z,966.47
2017-07-24T03:18:38.372Z,966.44
2017-07-24T03:19:39.070Z,966.40
2017-07-24T03:20:39.770Z,966.38
2017-07-24T03:21:40.471Z,966.37
2017-07-24T03:22:41.422Z,966.38
2017-07-24T03:23:42.125Z,966.34
2017-07-24T03:24:42.826Z,966.31
2017-07-24T03:25:43.529Z,966.27
2017-07-24T03:26:44.229Z,966.21
2017-07-24T03:27:45.185Z,966.20
2017-07-24T03:28:45.885Z,966.17
2017-07-24T03:29:46.587Z,966.20
2017-07-24T03:30:47.293Z,966.16
2017-07-24T03:31:47.996Z,966.14
2017-07-24T03:32:48.744Z,966.14
2017-07-24T03:33:49.443Z,966.09
2017-07-24T03:34:50.146Z,966.10
2017-07-24T03:35:50.853Z,966.14
2017-07-24T03:36:51.553Z,966.09
2017-07-24T03:37:52.511Z,966.08
2017-07-24T03:38:53.213Z,966.07
2017-07-24T03:39:53.916Z,966.00
2017-07-24T03:40:54.617Z,965.99
2017-07-24T03:41:55.317Z,965.94
2017-07-24T03:42:56.265Z,965.95
2017-07-24T03:43:56.968Z,965.96
2017-07-24T03:44:57.672Z,965.98
2017-07-24T03:45:58.375Z,965.95
2017-07-24T03:46:59.073Z,965.93
2017-07-24T03:48:00.023Z,965.89
2017-07-24T03:49:00.725Z,965.87
2017-07-24T03:50:01.427Z,965.86
2017-07-24T03:51:02.128Z,965.84
2017-07-24T03:52:02.837Z,965.83
2017-07-24T03:53:03.789Z,965.79
2017-07-24T03:54:04.488Z,965.80
2017-07-24T03:55:05.190Z,965.75
2017-07-24T03:56:05.892Z,965.69
2017-07-24T03:57:06.594Z,965.76
2017-07-24T03:58:07.560Z,965.70
2017-07-24T03:59:08.264Z,965.73
2017-07-24T04:00:08.965Z,965.72
2017-07-24T04:01:09.666Z,965.67
2017-07-24T04:02:10.368Z,965.64
2017-07-24T04:03:11.319Z,965.65
2017-07-24T04:04:12.020Z,965.65
2017-07-24T04:05:12.723Z,965.59
2017-07-24T04:06:13.426Z,965.53
2017-07-24T04:07:14.128Z,965.49
2017-07-24T04:08:14.832Z,965.51
2017-07-24T04:09:15.541Z,965.44
2017-07-24T04:10:16.243Z,965.45
2017-07-24T04:11:16.944Z,965.40
2017-07-24T04:12:17.646Z,965.43
2017-07-24T04:13:18.359Z,965.34
2017-07-24T04:14:19.071Z,965.38
2017-07-24T04:15:19.773Z,965.34
2017-07-24T04:16:20.472Z,965.34
2017-07-24T04:17:21.175Z,965.31
2017-07-24T04:18:22.133Z,965.27
2017-07-24T04:19:22.838Z,965.26
2017-07-24T04:20:23.540Z,965.19
2017-07-24T04:21:24.244Z,965.22
2017-07-24T04:22:24.943Z,965.18
2017-07-24T04:23:25.896Z,965.11
2017-07-24T04:24:26.597Z,965.10
2017-07-24T04:25:27.301Z,965.10
2017-07-24T04:26:28.002Z,965.07
2017-07-24T04:27:28.704Z,965.05
2017-07-24T04:28:29.657Z,965.00
2017-07-24T04:29:30.361Z,964.96
2017-07-24T04:30:31.063Z,965.01
2017-07-24T04:31:31.764Z,964.97
2017-07-24T04:32:32.462Z,964.99
2017-07-24T04:33:33.416Z,964.99
2017-07-24T04:34:34.123Z,965.03
2017-07-24T04:35:34.825Z,965.08
2017-07-24T04:36:35.528Z,965.07
2017-07-24T04:37:36.236Z,964.98
2017-07-24T04:38:36.945Z,964.96
2017-07-24T04:39:37.649Z,964.97
2017-07-24T04:40:38.352Z,964.94
2017-07-24T04:41:39.054Z,964.96
2017-07-24T04:42:39.763Z,964.93
2017-07-24T04:43:40.719Z,964.90
2017-07-24T04:44:41.426Z,964.92
2017-07-24T04:45:42.134Z,964.93
2017-07-24T04:46:42.839Z,964.94
2017-07-24T04:47:43.540Z,964.94
2017-07-24T04:48:44.490Z,964.98
2017-07-24T04:49:45.195Z,964.96
2017-07-24T04:50:45.896Z,964.97
2017-07-24T04:51:46.609Z,964.97
2017-07-24T04:52:47.310Z,964.99
2017-07-24T04:53:48.265Z,964.98
2017-07-24T04:54:48.971Z,964.95
2017-07-24T04:55:49.671Z,964.96
2017-07-24T04:56:50.373Z,964.94
2017-07-24T04:57:51.073Z,964.99
2017-07-24T04:58:52.021Z,964.93
2017-07-24T04:59:52.721Z,964.95
2017-07-24T05:00:53.428Z,964.86
2017-07-24T05:01:54.134Z,964.88
2017-07-24T05:02:54.848Z,964.81
2017-07-24T05:03:55.801Z,964.83
2017-07-24T05:04:56.504Z,964.77
2017-07-24T05:05:57.220Z,964.77
2017-07-24T05:06:57.921Z,964.79
2017-07-24T05:07:58.625Z,964.75
2017-07-24T05:08:59.576Z,964.76
2017-07-24T05:10:00.277Z,964.76
2017-07-24T05:11:00.980Z,964.74
2017-07-24T05:12:01.680Z,964.77
2017-07-24T05:13:02.385Z,964.73
2017-07-24T05:14:03.341Z,964.76
2017-07-24T05:15:04.043Z,964.77
2017-07-24T05:16:04.746Z,964.75
2017-07-24T05:17:05.455Z,964.75
2017-07-24T05:18:06.159Z,964.79
2017-07-24T05:19:06.868Z,964.75
2017-07-24T05:20:07.573Z,964.76
2017-07-24T05:21:08.283Z,964.71
2017-07-24T05:22:08.985Z,964.76
2017-07-24T05:23:09.688Z,964.74
2017-07-24T05:24:10.655Z,964.71
2017-07-24T05:25:11.362Z,964.72
2017-07-24T05:26:12.069Z,964.68
2017-07-24T05:27:12.775Z,964.67
2017-07-24T05:28:13.480Z,964.69
2017-07-24T05:29:14.433Z,964.66
2017-07-24T05:30:15.137Z,964.62
2017-07-24T05:31:15.842Z,964.65
2017-07-24T05:32:16.547Z,964.61
2017-07-24T05:33:17.254Z,964.61
2017-07-24T05:34:18.210Z,964.63
2017-07-24T05:35:18.922Z,964.62
2017-07-24T05:36:19.633Z,964.62
2017-07-24T05:37:20.337Z,964.60
2017-07-24T05:38:21.041Z,964.59
2017-07-24T05:39:21.998Z,964.54
2017-07-24T05:40:22.710Z,964.49
2017-07-24T05:41:23.413Z,964.48
2017-07-24T05:42:24.116Z,964.43
2017-07-24T05:43:24.819Z,964.37
2017-07-24T05:44:25.774Z,964.36
2017-07-24T05:45:26.482Z,964.38
2017-07-24T05:46:27.183Z,964.38
2017-07-24T05:47:27.893Z,964.37
2017-07-24T05:48:28.594Z,964.39
2017-07-24T05:49:29.547Z,964.39
2017-07-24T05:50:30.248Z,964.35
2017-07-24T05:51:30.949Z,964.32
2017-07-24T05:52:31.654Z,964.35
2017-07-24T05:53:32.358Z,964.29
2017-07-24T05:54:33.310Z,964.31
2017-07-24T05:55:34.017Z,964.34
2017-07-24T05:56:34.724Z,964.35
2017-07-24T05:57:35.433Z,964.32
2017-07-24T05:58:36.138Z,964.36
2017-07-24T05:59:37.090Z,964.40
2017-07-24T06:00:37.798Z,964.40
2017-07-24T06:01:38.501Z,964.39
2017-07-24T06:02:39.206Z,964.38
2017-07-24T06:03:39.913Z,964.40
2017-07-24T06:04:40.869Z,964.35
2017-07-24T06:05:41.570Z,964.32
2017-07-24T06:06:42.277Z,964.32
2017-07-24T06:07:42.984Z,964.27
2017-07-24T06:08:43.693Z,964.27
2017-07-24T06:09:44.399Z,964.27
2017-07-24T06:10:45.108Z,964.26
2017-07-24T06:11:45.820Z,964.26
2017-07-24T06:12:46.533Z,964.28
2017-07-24T06:13:47.242Z,964.23
2017-07-24T06:14:48.196Z,964.22
2017-07-24T06:15:48.898Z,964.18
2017-07-24T06:16:49.599Z,964.17
2017-07-24T06:17:50.306Z,964.18
2017-07-24T06:18:51.013Z,964.21
2017-07-24T06:19:51.967Z,964.19
2017-07-24T06:20:52.678Z,964.21
2017-07-24T06:21:53.386Z,964.18
2017-07-24T06:22:54.092Z,964.16
2017-07-24T06:23:54.794Z,964.15
2017-07-24T06:24:55.753Z,964.17
2017-07-24T06:25:56.456Z,964.15
2017-07-24T06:26:57.166Z,964.12
2017-07-24T06:27:57.880Z,964.11
2017-07-24T06:28:58.580Z,964.14
2017-07-24T06:29:59.280Z,964.13
2017-07-24T06:30:59.983Z,964.11
2017-07-24T06:32:00.684Z,964.11
2017-07-24T06:33:01.388Z,964.08
2017-07-24T06:34:02.089Z,964.09
2017-07-24T06:35:02.798Z,964.06
2017-07-24T06:36:03.497Z,964.05
2017-07-24T06:37:04.201Z,964.02
2017-07-24T06:38:04.918Z,964.03
2017-07-24T06:39:05.622Z,964.00
2017-07-24T06:40:06.576Z,964.00
2017-07-24T06:41:07.284Z,964.00
2017-07-24T06:42:07.990Z,963.97
2017-07-24T06:43:08.696Z,964.01
2017-07-24T06:44:09.400Z,964.04
2017-07-24T06:45:10.357Z,964.05
2017-07-24T06:46:11.063Z,964.07
2017-07-24T06:47:11.774Z,964.06
2017-07-24T06:48:12.491Z,964.07
2017-07-24T06:49:13.199Z,964.08
2017-07-24T06:50:14.155Z,964.09
2017-07-24T06:51:14.860Z,964.05
2017-07-24T06:52:15.565Z,964.03
2017-07-24T06:53:16.266Z,963.98
2017-07-24T06:54:16.969Z,964.02
2017-07-24T06:55:17.922Z,963.99
2017-07-24T06:56:18.629Z,964.02
2017-07-24T06:57:19.335Z,964.00
2017-07-24T06:58:20.044Z,964.00
2017-07-24T06:59:20.748Z,964.06
2017-07-24T07:00:21.701Z,964.05
2017-07-24T07:01:22.403Z,964.06
2017-07-24T07:02:23.107Z,964.10
2017-07-24T07:03:23.816Z,964.09
2017-07-24T07:04:24.526Z,964.03
2017-07-24T07:05:25.492Z,964.04
2017-07-24T07:06:26.198Z,963.97
2017-07-24T07:07:26.902Z,963.93
2017-07-24T07:08:27.608Z,963.89
2017-07-24T07:09:28.309Z,963.92
2017-07-24T07:10:29.265Z,963.91
2017-07-24T07:11:29.972Z,963.94
2017-07-24T07:12:30.674Z,963.91
2017-07-24T07:13:31.382Z,963.95
2017-07-24T07:14:32.088Z,963.96
2017-07-24T07:15:33.043Z,963.96
2017-07-24T07:16:33.753Z,963.94
2017-07-24T07:17:34.463Z,963.91
2017-07-24T07:18:35.179Z,963.90
2017-07-24T07:19:35.893Z,963.86
2017-07-24T07:20:36.851Z,963.83
2017-07-24T07:21:37.561Z,963.79
2017-07-24T07:22:38.269Z,963.82
2017-07-24T07:23:38.973Z,963.84
2017-07-24T07:24:39.685Z,963.84
2017-07-24T07:25:40.645Z,963.83
2017-07-24T07:26:41.348Z,963.80
2017-07-24T07:27:42.058Z,963.78
2017-07-24T07:28:42.787Z,963.78
2017-07-24T07:29:43.498Z,963.76
2017-07-24T07:30:44.456Z,963.77
2017-07-24T07:31:45.159Z,963.74
2017-07-24T07:32:45.867Z,963.79
2017-07-24T07:33:46.572Z,963.82
2017-07-24T07:34:47.279Z,963.79
2017-07-24T07:35:47.983Z,963.78
2017-07-24T07:36:48.687Z,963.84
2017-07-24T07:37:49.395Z,963.82
2017-07-24T07:38:50.104Z,963.80
2017-07-24T07:39:50.811Z,963.78
2017-07-24T07:40:51.764Z,963.79
2017-07-24T07:41:52.468Z,963.80
2017-07-24T07:42:53.168Z,963.81
2017-07-24T07:43:53.871Z,963.80
2017-07-24T07:44:54.575Z,963.78
2017-07-24T07:45:55.536Z,963.78
2017-07-24T07:46:56.251Z,963.75
2017-07-24T07:47:56.963Z,963.71
2017-07-24T07:48:57.668Z,963.74
2017-07-24T07:49:58.380Z,963.74
2017-07-24T07:50:59.350Z,963.73
2017-07-24T07:52:00.058Z,963.75
2017-07-24T07:53:00.766Z,963.69
2017-07-24T07:54:01.470Z,963.73
2017-07-24T07:55:02.174Z,963.68
2017-07-24T07:56:03.132Z,963.66
2017-07-24T07:57:03.837Z,963.64
2017-07-24T07:58:04.543Z,963.68
2017-07-24T07:59:05.249Z,963.70
2017-07-24T08:00:05.959Z,963.68
2017-07-24T08:01:06.920Z,963.72
2017-07-24T08:02:07.624Z,963.68
2017-07-24T08:03:08.332Z,963.67
2017-07-24T08:04:09.042Z,963.67
2017-07-24T08:05:09.749Z,963.72
2017-07-24T08:06:10.460Z,963.68
2017-07-24T08:07:11.173Z,963.67
2017-07-24T08:08:11.882Z,963.65
2017-07-24T08:09:12.589Z,963.67
2017-07-24T08:10:13.296Z,963.68
2017-07-24T08:11:14.259Z,963.74
2017-07-24T08:12:14.967Z,963.76
2017-07-24T08:13:15.675Z,963.67
2017-07-24T08:14:16.378Z,963.68
2017-07-24T08:15:17.090Z,963.67
2017-07-24T08:16:18.049Z,963.70
2017-07-24T08:17:18.754Z,963.67
2017-07-24T08:18:19.460Z,963.64
2017-07-24T08:19:20.172Z,963.69
2017-07-24T08:20:20.885Z,963.73
2017-07-24T08:21:21.841Z,963.68
2017-07-24T08:22:22.547Z,963.74
2017-07-24T08:23:23.260Z,963.69
2017-07-24T08:24:23.974Z,963.67
2017-07-24T08:25:24.684Z,963.64
2017-07-24T08:26:25.641Z,963.65
2017-07-24T08:27:26.350Z,963.65
2017-07-24T08:28:27.055Z,963.58
2017-07-24T08:29:27.765Z,963.54
2017-07-24T08:30:28.472Z,963.50
2017-07-24T08:31:29.435Z,963.43
2017-07-24T08:32:30.143Z,963.43
2017-07-24T08:33:30.856Z,963.46
2017-07-24T08:34:31.563Z,963.47
2017-07-24T08:35:32.275Z,963.44
2017-07-24T08:36:33.240Z,963.47
2017-07-24T08:37:33.948Z,963.44
2017-07-24T08:38:34.663Z,963.43
2017-07-24T08:39:35.370Z,963.42
2017-07-24T08:40:36.077Z,963.42
2017-07-24T08:41:37.034Z,963.39
2017-07-24T08:42:37.737Z,963.35
2017-07-24T08:43:38.453Z,963.35
2017-07-24T08:44:39.161Z,963.38
2017-07-24T08:45:39.871Z,963.39
2017-07-24T08:46:40.578Z,963.39
2017-07-24T08:47:41.296Z,963.35
2017-07-24T08:48:42.003Z,963.37
2017-07-24T08:49:42.708Z,963.36
2017-07-24T08:50:43.415Z,963.38
2017-07-24T08:51:44.376Z,963.39
2017-07-24T08:52:45.083Z,963.40
2017-07-24T08:53:45.791Z,963.45
2017-07-24T08:54:46.497Z,963.42
2017-07-24T08:55:47.209Z,963.39
2017-07-24T08:56:47.914Z,963.39
2017-07-24T08:57:48.622Z,963.36
2017-07-24T08:58:49.327Z,963.35
2017-07-24T08:59:50.037Z,963.36
2017-07-24T09:00:50.742Z,963.35
2017-07-24T09:01:51.704Z,963.38
2017-07-24T09:02:52.417Z,963.41
2017-07-24T09:03:53.124Z,963.38
2017-07-24T09:04:53.831Z,963.42
2017-07-24T09:05:54.540Z,963.34
2017-07-24T09:06:55.500Z,963.38
2017-07-24T09:07:56.205Z,963.44
2017-07-24T09:08:56.913Z,963.44
2017-07-24T09:09:57.628Z,963.43
2017-07-24T09:10:58.337Z,963.42
2017-07-24T09:11:59.293Z,963.42
2017-07-24T09:13:00.003Z,963.40
2017-07-24T09:14:00.670Z,963.38
2017-07-24T09:15:01.399Z,963.45
2017-07-24T09:16:02.121Z,963.37
2017-07-24T09:17:03.098Z,963.36
2017-07-24T09:18:03.812Z,963.35
2017-07-24T09:19:04.521Z,963.33
2017-07-24T09:20:05.240Z,963.38
2017-07-24T09:21:05.952Z,963.38
2017-07-24T09:22:06.907Z,963.35
2017-07-24T09:23:07.612Z,963.35
2017-07-24T09:24:08.319Z,963.36
2017-07-24T09:25:09.026Z,963.35
2017-07-24T09:26:09.736Z,963.34
2017-07-24T09:27:10.691Z,963.34
2017-07-24T09:28:11.394Z,963.32
2017-07-24T09:29:12.110Z,963.28
2017-07-24T09:30:12.822Z,963.27
2017-07-24T09:31:13.526Z,963.26
2017-07-24T09:32:14.478Z,963.27
2017-07-24T09:33:15.187Z,963.25
2017-07-24T09:34:15.904Z,963.26
2017-07-24T09:35:16.614Z,963.22
2017-07-24T09:36:17.325Z,963.21
2017-07-24T09:37:18.033Z,963.22
2017-07-24T09:38:18.737Z,963.23
2017-07-24T09:39:19.443Z,963.25
2017-07-24T09:40:20.152Z,963.21
2017-07-24T09:41:20.864Z,963.14
2017-07-24T09:42:21.819Z,963.17
2017-07-24T09:43:22.527Z,963.16
2017-07-24T09:44:23.231Z,963.15
2017-07-24T09:45:23.943Z,963.12
2017-07-24T09:46:24.654Z,963.12
2017-07-24T09:47:25.610Z,963.12
2017-07-24T09:48:26.317Z,963.14
2017-07-24T09:49:27.031Z,963.10
2017-07-24T09:50:27.738Z,963.08
2017-07-24T09:51:28.441Z,963.14
2017-07-24T09:52:29.398Z,963.13
2017-07-24T09:53:30.106Z,963.14
2017-07-24T09:54:30.812Z,963.16
2017-07-24T09:55:31.517Z,963.16
2017-07-24T09:56:32.229Z,963.27
2017-07-24T09:57:33.183Z,963.18
2017-07-24T09:58:33.898Z,963.11
2017-07-24T09:59:34.611Z,963.13
2017-07-24T10:00:35.315Z,963.11
2017-07-24T10:01:36.027Z,963.13
2017-07-24T10:02:36.987Z,963.09
2017-07-24T10:03:37.695Z,963.11
2017-07-24T10:04:38.400Z,963.10
2017-07-24T10:05:39.113Z,963.07
2017-07-24T10:06:39.820Z,963.04
2017-07-24T10:07:40.785Z,963.05
2017-07-24T10:08:41.488Z,963.11
2017-07-24T10:09:42.196Z,963.07
2017-07-24T10:10:42.898Z,963.06
2017-07-24T10:11:43.603Z,962.98
2017-07-24T10:12:44.560Z,963.02
2017-07-24T10:13:45.269Z,963.04
2017-07-24T10:14:45.976Z,963.03
2017-07-24T10:15:46.689Z,963.05
2017-07-24T10:16:47.399Z,963.08
2017-07-24T10:17:48.351Z,963.01
2017-07-24T10:18:49.062Z,963.03
2017-07-24T10:19:49.774Z,963.05
2017-07-24T10:20:50.479Z,963.04
2017-07-24T10:21:51.187Z,963.02
2017-07-24T10:22:52.143Z,963.06
2017-07-24T10:23:52.868Z,963.03
2017-07-24T10:24:53.572Z,963.06
2017-07-24T10:25:54.296Z,963.05
2017-07-24T10:26:55.011Z,963.09
2017-07-24T10:27:55.969Z,963.06
2017-07-24T10:28:56.686Z,963.09
2017-07-24T10:29:57.416Z,963.11
2017-07-24T10:30:58.122Z,963.06
2017-07-24T10:31:58.834Z,963.05
2017-07-24T10:32:59.788Z,963.03
2017-07-24T10:34:00.492Z,963.05
2017-07-24T10:35:01.195Z,963.01
2017-07-24T10:36:01.902Z,963.03
2017-07-24T10:37:02.611Z,963.03
2017-07-24T10:38:03.567Z,963.00
2017-07-24T10:39:04.281Z,962.98
2017-07-24T10:40:04.984Z,962.96
2017-07-24T10:41:05.685Z,962.97
2017-07-24T10:42:06.389Z,962.95
2017-07-24T10:43:07.345Z,963.00
2017-07-24T10:44:08.050Z,963.03
2017-07-24T10:45:08.757Z,962.99
2017-07-24T10:46:09.475Z,962.98
2017-07-24T10:47:10.183Z,963.01
2017-07-24T10:48:10.888Z,963.06
2017-07-24T10:49:11.612Z,963.09
2017-07-24T10:50:12.320Z,963.08
2017-07-24T10:51:13.021Z,963.13
2017-07-24T10:52:13.727Z,963.15
2017-07-24T10:53:14.684Z,963.15
2017-07-24T10:54:15.396Z,963.13
2017-07-24T10:55:16.101Z,963.11
2017-07-24T10:56:16.803Z,963.10
2017-07-24T10:57:17.524Z,963.09
2017-07-24T10:58:18.477Z,963.13
2017-07-24T10:59:19.190Z,963.11
2017-07-24T11:00:19.898Z,963.07
2017-07-24T11:01:20.602Z,963.14
2017-07-24T11:02:21.316Z,963.24
2017-07-24T11:03:22.271Z,963.17
2017-07-24T11:04:22.976Z,963.20
2017-07-24T11:05:23.680Z,963.28
2017-07-24T11:06:24.380Z,963.18
2017-07-24T11:07:25.084Z,963.26
2017-07-24T11:08:25.801Z,963.23
2017-07-24T11:09:26.506Z,963.23
2017-07-24T11:10:27.211Z,963.20
2017-07-24T11:11:27.922Z,963.29
2017-07-24T11:12:28.623Z,963.25
2017-07-24T11:13:29.577Z,963.28
2017-07-24T11:14:30.283Z,963.28
2017-07-24T11:15:30.998Z,963.27
2017-07-24T11:16:31.703Z,963.33
2017-07-24T11:17:32.410Z,963.34
2017-07-24T11:18:33.416Z,963.24
2017-07-24T11:19:34.119Z,963.32
2017-07-24T11:20:34.826Z,963.42
2017-07-24T11:21:35.536Z,963.35
2017-07-24T11:22:36.242Z,963.38
2017-07-24T11:23:36.954Z,963.36
2017-07-24T11:24:37.657Z,963.44
2017-07-24T11:25:38.363Z,963.51
2017-07-24T11:26:39.066Z,963.33
2017-07-24T11:27:39.774Z,963.38
2017-07-24T11:28:40.738Z,963.43
2017-07-24T11:29:41.445Z,963.42
2017-07-24T11:30:42.148Z,963.47
2017-07-24T11:31:42.851Z,963.44
2017-07-24T11:32:43.561Z,963.48
2017-07-24T11:33:44.511Z,963.51
2017-07-24T11:34:45.213Z,963.48
2017-07-24T11:35:45.919Z,963.50
2017-07-24T11:36:46.626Z,963.56
2017-07-24T11:37:47.333Z,963.57
2017-07-24T11:38:48.289Z,963.62
2017-07-24T11:39:48.999Z,963.55
2017-07-24T11:40:49.713Z,963.55
2017-07-24T11:41:50.424Z,963.53
2017-07-24T11:42:51.127Z,963.50
2017-07-24T11:43:52.080Z,963.55
2017-07-24T11:44:52.785Z,963.62
2017-07-24T11:45:53.491Z,963.60
2017-07-24T11:46:54.205Z,963.69
2017-07-24T11:47:54.910Z,963.69
2017-07-24T11:48:55.867Z,963.75
2017-07-24T11:49:56.569Z,963.74
2017-07-24T11:50:57.274Z,963.76
2017-07-24T11:51:57.977Z,963.81
2017-07-24T11:52:58.685Z,963.74
2017-07-24T11:53:59.640Z,963.81
2017-07-24T11:55:00.349Z,963.87
2017-07-24T11:56:01.062Z,963.82
2017-07-24T11:57:01.769Z,963.83
2017-07-24T11:58:02.488Z,963.81
2017-07-24T11:59:03.440Z,963.82
2017-07-24T12:00:04.145Z,963.85
2017-07-24T12:01:04.854Z,963.86
2017-07-24T12:02:05.556Z,963.86
2017-07-24T12:03:06.275Z,963.81
2017-07-24T12:04:06.979Z,963.79
2017-07-24T12:05:07.687Z,963.81
2017-07-24T12:06:08.388Z,963.88
2017-07-24T12:07:09.050Z,963.82
2017-07-24T12:08:09.799Z,963.80
2017-07-24T12:09:10.750Z,963.79
2017-07-24T12:10:11.460Z,963.81
2017-07-24T12:11:12.169Z,963.85
2017-07-24T12:12:12.875Z,963.88
2017-07-24T12:13:13.581Z,963.88
2017-07-24T12:14:14.538Z,963.83
2017-07-24T12:15:15.246Z,963.80
2017-07-24T12:16:15.949Z,963.79
2017-07-24T12:17:16.651Z,963.79
2017-07-24T12:18:17.354Z,963.83
2017-07-24T12:19:18.058Z,963.81
2017-07-24T12:20:18.764Z,963.88
2017-07-24T12:21:19.469Z,963.91
2017-07-24T12:22:20.173Z,963.90
2017-07-24T12:23:20.877Z,963.90
2017-07-24T12:24:21.593Z,963.95
2017-07-24T12:25:22.298Z,963.95
2017-07-24T12:26:23.005Z,963.93
2017-07-24T12:27:23.712Z,963.92
2017-07-24T12:28:24.421Z,963.88
2017-07-24T12:29:25.376Z,963.92
2017-07-24T12:30:26.084Z,963.94
2017-07-24T12:31:26.796Z,963.95
2017-07-24T12:32:27.501Z,963.91
2017-07-24T12:33:28.204Z,963.94
2017-07-24T12:34:29.163Z,963.93
2017-07-24T12:35:29.867Z,964.01
2017-07-24T12:36:30.571Z,964.01
2017-07-24T12:37:31.277Z,964.00